createdAt,value
2023-04-15T00:10:51.876Z,40.10
2023-04-15T00:25:53.340Z,40.10
2023-04-15T00:40:54.797Z,40.30
2023-04-15T00:55:56.269Z,40.20
2023-04-15T01:10:57.726Z,40.20
2023-04-15T01:25:59.208Z,40.30
2023-04-15T01:41:00.685Z,40.20
2023-04-15T01:56:02.266Z,40.20
2023-04-15T02:11:03.790Z,40.30
2023-04-15T02:26:05.263Z,40.40
2023-04-15T02:41:06.843Z,40.40
2023-04-15T02:56:08.303Z,40.40
2023-04-15T03:11:09.784Z,40.40
2023-04-15T03:26:11.274Z,40.40
2023-04-15T03:41:12.748Z,40.40
2023-04-15T03:56:14.220Z,40.40
2023-04-15T04:11:15.684Z,40.40
2023-04-15T04:26:17.175Z,40.50
2023-04-15T04:41:18.645Z,40.50
2023-04-15T04:56:20.124Z,40.50
2023-04-15T05:11:21.604Z,40.60
2023-04-15T05:26:23.155Z,40.60
2023-04-15T05:41:24.611Z,40.70
2023-04-15T05:56:26.081Z,40.70
2023-04-15T06:11:27.561Z,40.70
2023-04-15T06:26:29.034Z,40.70
2023-04-15T06:41:30.505Z,40.60
2023-04-15T06:56:31.981Z,40.60
2023-04-15T07:11:33.448Z,40.50
2023-04-15T07:26:34.975Z,40.30
2023-04-15T07:41:36.441Z,39.80
2023-04-15T07:56:37.958Z,39.20
2023-04-15T08:11:39.445Z,39.30
2023-04-15T08:26:40.908Z,39.00
2023-04-15T08:41:42.370Z,38.70
2023-04-15T08:56:43.853Z,38.50
2023-04-15T09:11:45.329Z,38.40
2023-04-15T09:26:46.795Z,38.10
2023-04-15T09:41:48.263Z,37.80
2023-04-15T09:56:49.740Z,37.60
2023-04-15T10:11:51.211Z,37.30
2023-04-15T10:26:52.677Z,37.00
2023-04-15T10:41:54.135Z,36.70
2023-04-15T10:56:55.592Z,36.80
2023-04-15T11:11:57.394Z,36.90
2023-04-15T11:26:58.866Z,37.20
2023-04-15T11:42:00.452Z,35.70
2023-04-15T11:57:01.927Z,35.60
2023-04-15T12:12:03.399Z,35.30
2023-04-15T12:27:04.887Z,35.10
2023-04-15T12:42:06.377Z,35.10
2023-04-15T12:57:07.996Z,36.00
2023-04-15T13:12:09.470Z,35.10
2023-04-15T13:27:10.936Z,35.00
2023-04-15T13:42:12.423Z,34.90
2023-04-15T13:57:13.889Z,35.00
2023-04-15T14:12:15.389Z,35.20
2023-04-15T14:27:16.860Z,35.20
2023-04-15T14:42:18.470Z,35.40
2023-04-15T14:57:19.966Z,35.90
2023-04-15T15:12:21.439Z,36.50
2023-04-15T15:27:22.918Z,37.10
2023-04-15T15:42:24.419Z,37.30
2023-04-15T15:57:25.884Z,37.20
2023-04-15T16:12:27.380Z,37.40
2023-04-15T16:27:28.847Z,37.70
2023-04-15T16:42:30.301Z,38.20
2023-04-15T16:58:00.827Z,39.10
2023-04-15T17:12:53.210Z,40.00
2023-04-15T17:27:54.681Z,40.50
2023-04-15T17:42:56.173Z,40.90
2023-04-15T17:57:57.645Z,41.20
2023-04-15T18:12:59.122Z,41.20
2023-04-15T18:28:00.605Z,41.30
2023-04-15T18:43:02.148Z,41.40
2023-04-15T18:58:08.460Z,41.50
2023-04-15T19:13:10.730Z,41.60
2023-04-15T19:28:12.198Z,41.70
2023-04-15T19:43:13.664Z,41.80
2023-04-15T19:58:15.162Z,41.90
2023-04-15T20:13:16.684Z,41.80
2023-04-15T20:28:18.156Z,41.80
2023-04-15T20:43:19.611Z,41.70
2023-04-15T20:58:21.132Z,41.60
2023-04-15T21:13:22.605Z,41.60
2023-04-15T21:28:24.078Z,41.60
2023-04-15T21:43:25.556Z,41.50
2023-04-15T21:58:27.028Z,41.50
2023-04-15T22:13:29.647Z,41.50
2023-04-15T22:28:31.109Z,41.40
2023-04-15T22:43:32.585Z,41.60
2023-04-15T22:58:34.043Z,41.60
2023-04-15T23:13:35.615Z,41.70
2023-04-15T23:28:37.084Z,41.70
2023-04-15T23:43:38.553Z,41.50
2023-04-15T23:58:40.020Z,41.50
